createdAt,value
2018-02-03T05:00:38.091Z,1000.61
2018-02-03T05:01:03.589Z,1000.64
2018-02-03T05:01:29.043Z,1000.58
2018-02-03T05:01:54.532Z,1000.6
2018-02-03T05:02:20.037Z,1000.6
2018-02-03T05:02:45.507Z,1000.57
2018-02-03T05:03:11.005Z,1000.6
2018-02-03T05:03:36.478Z,1000.59
2018-02-03T05:04:01.971Z,1000.59
2018-02-03T05:04:27.465Z,1000.62
2018-02-03T05:04:52.938Z,1000.63
2018-02-03T05:05:18.451Z,1000.59
2018-02-03T05:05:43.931Z,1000.59
2018-02-03T05:06:09.409Z,1000.58
2018-02-03T05:06:34.883Z,1000.63
2018-02-03T05:07:00.389Z,1000.61
2018-02-03T05:08:05.005Z,1000.62
2018-02-03T05:08:30.515Z,1000.65
2018-02-03T05:08:55.990Z,1000.64
2018-02-03T05:09:21.492Z,1000.64
2018-02-03T05:09:46.965Z,1000.61
2018-02-03T05:10:12.483Z,1000.63
2018-02-03T05:10:37.978Z,1000.62
2018-02-03T05:11:03.456Z,1000.63
2018-02-03T05:11:28.903Z,1000.59
2018-02-03T05:11:54.413Z,1000.64
2018-02-03T05:12:19.886Z,1000.59
2018-02-03T05:12:45.366Z,1000.61
2018-02-03T05:13:10.830Z,1000.62
2018-02-03T05:13:36.325Z,1000.62
2018-02-03T05:14:01.820Z,1000.62
2018-02-03T05:14:27.351Z,1000.6
2018-02-03T05:14:52.816Z,1000.61
2018-02-03T05:15:18.312Z,1000.62
2018-02-03T05:15:43.827Z,1000.59
2018-02-03T05:16:09.300Z,1000.65
2018-02-03T05:16:34.788Z,1000.59
2018-02-03T05:17:00.303Z,1000.61
2018-02-03T05:17:25.817Z,1000.6
2018-02-03T05:17:51.331Z,1000.64
2018-02-03T05:18:16.836Z,1000.66
2018-02-03T05:18:42.341Z,1000.65
2018-02-03T05:19:07.844Z,1000.65
2018-02-03T05:19:33.342Z,1000.64
2018-02-03T05:19:58.831Z,1000.62
2018-02-03T05:20:24.324Z,1000.6
2018-02-03T05:20:49.842Z,1000.67
2018-02-03T05:21:15.352Z,1000.62
2018-02-03T05:21:40.875Z,1000.67
2018-02-03T05:22:06.410Z,1000.65
2018-02-03T05:23:15.119Z,1000.58
2018-02-03T05:23:40.634Z,1000.55
2018-02-03T05:24:06.129Z,1000.59
2018-02-03T05:24:31.621Z,1000.58
2018-02-03T05:24:57.117Z,1000.56
2018-02-03T05:25:22.600Z,1000.58
2018-02-03T05:25:48.081Z,1000.6
2018-02-03T05:26:13.611Z,1000.56
2018-02-03T05:26:39.103Z,1000.56
2018-02-03T05:27:04.580Z,1000.59
2018-02-03T05:27:30.067Z,1000.59
2018-02-03T05:28:28.580Z,1000.55
2018-02-03T05:28:54.064Z,1000.55
2018-02-03T05:29:19.583Z,1000.56
2018-02-03T05:29:45.045Z,1000.52
2018-02-03T05:30:10.524Z,1000.52
2018-02-03T05:30:35.994Z,1000.54
2018-02-03T05:31:01.481Z,1000.53
2018-02-03T05:31:26.960Z,1000.52
2018-02-03T05:31:52.438Z,1000.53
2018-02-03T05:32:17.931Z,1000.55
2018-02-03T05:32:43.466Z,1000.53
2018-02-03T05:33:08.953Z,1000.55
2018-02-03T05:33:34.458Z,1000.54
2018-02-03T05:33:59.963Z,1000.54
2018-02-03T05:34:25.464Z,1000.55
2018-02-03T05:34:50.981Z,1000.53
2018-02-03T05:35:16.443Z,1000.53
2018-02-03T05:35:41.908Z,1000.51
2018-02-03T05:36:40.428Z,1000.55
2018-02-03T05:37:05.917Z,1000.52
2018-02-03T05:37:31.416Z,1000.53
2018-02-03T05:37:56.916Z,1000.52
2018-02-03T05:38:22.395Z,1000.55
2018-02-03T05:38:47.899Z,1000.52
2018-02-03T05:39:13.410Z,1000.56
2018-02-03T05:39:38.912Z,1000.52
2018-02-03T05:40:04.393Z,1000.51
2018-02-03T05:40:29.885Z,1000.54
2018-02-03T05:40:55.383Z,1000.48
2018-02-03T05:41:20.880Z,1000.52
2018-02-03T05:41:46.381Z,1000.54
2018-02-03T05:42:11.876Z,1000.52
2018-02-03T05:42:37.352Z,1000.52
2018-02-03T05:43:02.816Z,1000.54
2018-02-03T05:43:28.304Z,1000.53
2018-02-03T05:43:53.852Z,1000.55
2018-02-03T05:44:19.354Z,1000.54
2018-02-03T05:44:44.864Z,1000.54
2018-02-03T05:45:10.338Z,1000.54
2018-02-03T05:45:35.800Z,1000.56
2018-02-03T05:46:01.280Z,1000.49
2018-02-03T05:46:26.753Z,1000.53
2018-02-03T05:46:52.247Z,1000.54
2018-02-03T05:47:17.737Z,1000.51
2018-02-03T05:47:43.222Z,1000.46
2018-02-03T05:48:08.691Z,1000.5
2018-02-03T05:48:34.191Z,1000.51
2018-02-03T05:48:59.664Z,1000.47
2018-02-03T05:49:25.185Z,1000.49
2018-02-03T05:49:50.725Z,1000.49
2018-02-03T05:50:59.420Z,1000.46
2018-02-03T05:51:24.902Z,1000.45
2018-02-03T05:51:50.390Z,1000.47
2018-02-03T05:52:15.888Z,1000.43
2018-02-03T05:52:41.354Z,1000.44
2018-02-03T05:53:44.927Z,1000.47
2018-02-03T05:54:10.414Z,1000.44
2018-02-03T05:54:35.899Z,1000.46
2018-02-03T05:55:01.401Z,1000.41
2018-02-03T05:55:26.871Z,1000.41
2018-02-03T05:55:52.412Z,1000.41
2018-02-03T05:56:17.883Z,1000.37
2018-02-03T05:56:43.353Z,1000.34
2018-02-03T05:57:08.807Z,1000.38
2018-02-03T05:57:34.301Z,1000.28
2018-02-03T05:57:59.774Z,1000.34
2018-02-03T05:58:25.220Z,1000.35
2018-02-03T05:59:23.751Z,1000.34
2018-02-03T05:59:49.249Z,1000.3
2018-02-03T06:00:14.715Z,1000.31
2018-02-03T06:00:40.222Z,1000.32
2018-02-03T06:01:05.673Z,1000.34
2018-02-03T06:01:31.153Z,1000.36
2018-02-03T06:01:56.633Z,1000.35
2018-02-03T06:02:22.122Z,1000.35
2018-02-03T06:02:47.632Z,1000.33
2018-02-03T06:03:13.129Z,1000.32
2018-02-03T06:03:38.629Z,1000.35
2018-02-03T06:04:04.105Z,1000.35
2018-02-03T06:04:29.595Z,1000.37
2018-02-03T06:04:55.101Z,1000.36
2018-02-03T06:05:20.590Z,1000.38
2018-02-03T06:05:46.100Z,1000.43
2018-02-03T06:06:11.562Z,1000.38
2018-02-03T06:06:37.051Z,1000.41
2018-02-03T06:07:02.538Z,1000.38
2018-02-03T06:07:28.038Z,1000.4
2018-02-03T06:07:53.522Z,1000.45
2018-02-03T06:08:19.000Z,1000.42
2018-02-03T06:09:22.621Z,1000.4
2018-02-03T06:09:48.120Z,1000.43
2018-02-03T06:10:13.617Z,1000.4
2018-02-03T06:10:39.104Z,1000.39
2018-02-03T06:11:04.592Z,1000.36
2018-02-03T06:11:30.042Z,1000.37
2018-02-03T06:12:28.546Z,1000.4
2018-02-03T06:12:54.035Z,1000.4
2018-02-03T06:13:19.520Z,1000.37
2018-02-03T06:13:45.058Z,1000.41
2018-02-03T06:14:10.579Z,1000.41
2018-02-03T06:14:36.006Z,1000.43
2018-02-03T06:15:01.463Z,1000.41
2018-02-03T06:15:59.981Z,1000.41
2018-02-03T06:16:25.476Z,1000.45
2018-02-03T06:16:50.981Z,1000.4
2018-02-03T06:17:16.484Z,1000.4
2018-02-03T06:17:41.990Z,1000.42
2018-02-03T06:18:07.549Z,1000.43
2018-02-03T06:18:33.026Z,1000.4
2018-02-03T06:18:58.534Z,1000.47
2018-02-03T06:19:24.040Z,1000.47
2018-02-03T06:19:49.555Z,1000.4
2018-02-03T06:20:15.035Z,1000.43
2018-02-03T06:20:40.504Z,1000.41
2018-02-03T06:21:05.989Z,1000.42
2018-02-03T06:21:31.476Z,1000.45
2018-02-03T06:21:57.010Z,1000.41
2018-02-03T06:22:22.480Z,1000.43
2018-02-03T06:22:47.994Z,1000.39
2018-02-03T06:23:13.464Z,1000.37
2018-02-03T06:23:38.964Z,1000.39
2018-02-03T06:24:04.430Z,1000.36
2018-02-03T06:24:29.905Z,1000.36
2018-02-03T06:24:55.394Z,1000.34
2018-02-03T06:25:20.874Z,1000.37
2018-02-03T06:25:46.374Z,1000.36
2018-02-03T06:26:11.871Z,1000.37
2018-02-03T06:27:15.462Z,1000.29
2018-02-03T06:27:40.941Z,1000.28
2018-02-03T06:28:06.430Z,1000.31
2018-02-03T06:28:31.922Z,1000.3
2018-02-03T06:28:57.410Z,1000.31
2018-02-03T06:29:22.919Z,1000.3
2018-02-03T06:29:48.445Z,1000.31
2018-02-03T06:30:13.943Z,1000.34
2018-02-03T06:30:39.446Z,1000.36
2018-02-03T06:31:04.938Z,1000.35
2018-02-03T06:31:30.442Z,1000.38
2018-02-03T06:31:55.929Z,1000.36
2018-02-03T06:32:21.446Z,1000.36
2018-02-03T06:32:46.963Z,1000.39
2018-02-03T06:33:12.460Z,1000.4
2018-02-03T06:33:37.974Z,1000.41
2018-02-03T06:34:03.472Z,1000.4
2018-02-03T06:34:28.987Z,1000.41
2018-02-03T06:34:54.458Z,1000.37
2018-02-03T06:35:19.962Z,1000.43
2018-02-03T06:35:45.424Z,1000.46
2018-02-03T06:36:10.933Z,1000.42
2018-02-03T06:36:36.421Z,1000.47
2018-02-03T06:37:01.880Z,1000.4
2018-02-03T06:37:27.329Z,1000.41
2018-02-03T06:37:52.801Z,1000.43
2018-02-03T06:38:18.296Z,1000.46
2018-02-03T06:38:43.792Z,1000.43
2018-02-03T06:39:09.257Z,1000.46
2018-02-03T06:39:34.730Z,1000.47
2018-02-03T06:40:00.290Z,1000.42
2018-02-03T06:41:14.085Z,1000.41
2018-02-03T06:41:39.563Z,1000.38
2018-02-03T06:42:58.455Z,1000.41
2018-02-03T06:43:23.962Z,1000.4
2018-02-03T06:43:49.432Z,1000.39
2018-02-03T06:44:14.932Z,1000.36
2018-02-03T06:44:40.426Z,1000.37
2018-02-03T06:45:05.889Z,1000.37
2018-02-03T06:45:31.371Z,1000.36
2018-02-03T06:45:56.840Z,1000.41
2018-02-03T06:46:22.335Z,1000.36
2018-02-03T06:46:47.944Z,1000.32
2018-02-03T06:47:13.451Z,1000.39
2018-02-03T06:47:39.040Z,1000.35
2018-02-03T06:48:04.500Z,1000.34
2018-02-03T06:48:30.013Z,1000.35
2018-02-03T06:48:55.549Z,1000.37
2018-02-03T06:49:21.119Z,1000.44
2018-02-03T06:49:46.684Z,1000.42
2018-02-03T06:50:12.132Z,1000.41
2018-02-03T06:50:37.616Z,1000.43
2018-02-03T06:51:03.128Z,1000.39
2018-02-03T06:51:28.715Z,1000.44
2018-02-03T06:51:54.392Z,1000.41
2018-02-03T06:52:19.953Z,1000.4
2018-02-03T06:52:45.412Z,1000.41
2018-02-03T06:53:10.888Z,1000.4
2018-02-03T06:53:36.393Z,1000.43
2018-02-03T06:54:01.889Z,1000.39
2018-02-03T06:54:27.365Z,1000.41
2018-02-03T06:54:52.900Z,1000.41
2018-02-03T06:55:18.452Z,1000.46
2018-02-03T06:55:43.933Z,1000.42
2018-02-03T06:56:09.519Z,1000.4
2018-02-03T06:56:34.991Z,1000.41
2018-02-03T06:57:00.495Z,1000.4
2018-02-03T06:57:25.988Z,1000.41
2018-02-03T06:57:51.583Z,1000.41
2018-02-03T06:58:55.241Z,1000.45
2018-02-03T06:59:20.716Z,1000.47
2018-02-03T06:59:46.191Z,1000.45
2018-02-03T07:00:11.686Z,1000.45
2018-02-03T07:00:37.196Z,1000.41
2018-02-03T07:01:02.691Z,1000.48
2018-02-03T07:01:28.244Z,1000.46
2018-02-03T07:01:53.739Z,1000.4
2018-02-03T07:02:19.227Z,1000.44
2018-02-03T07:02:44.729Z,1000.39
2018-02-03T07:03:10.211Z,1000.41
2018-02-03T07:03:35.726Z,1000.4
2018-02-03T07:04:01.204Z,1000.43
2018-02-03T07:04:26.657Z,1000.44
2018-02-03T07:04:52.164Z,1000.45
2018-02-03T07:05:17.651Z,1000.42
2018-02-03T07:05:43.156Z,1000.46
2018-02-03T07:06:08.656Z,1000.43
2018-02-03T07:06:34.134Z,1000.43
2018-02-03T07:06:59.637Z,1000.43
2018-02-03T07:07:25.149Z,1000.43
2018-02-03T07:07:50.644Z,1000.45
2018-02-03T07:08:16.147Z,1000.43
2018-02-03T07:08:41.626Z,1000.44
2018-02-03T07:09:07.122Z,1000.46
2018-02-03T07:09:32.616Z,1000.42
2018-02-03T07:09:58.135Z,1000.42
2018-02-03T07:10:23.633Z,1000.4
2018-02-03T07:11:32.322Z,1000.45
2018-02-03T07:11:57.813Z,1000.44
2018-02-03T07:12:23.300Z,1000.46
2018-02-03T07:12:48.782Z,1000.44
2018-02-03T07:13:14.306Z,1000.47
2018-02-03T07:13:39.784Z,1000.42
2018-02-03T07:14:05.277Z,1000.45
2018-02-03T07:14:30.736Z,1000.41
2018-02-03T07:14:56.259Z,1000.41
2018-02-03T07:15:21.735Z,1000.41
2018-02-03T07:15:47.209Z,1000.44
2018-02-03T07:16:12.677Z,1000.4
2018-02-03T07:16:38.247Z,1000.42
2018-02-03T07:17:03.715Z,1000.42
2018-02-03T07:18:07.306Z,1000.43
2018-02-03T07:18:32.821Z,1000.41
2018-02-03T07:18:58.327Z,1000.45
2018-02-03T07:19:23.812Z,1000.42
2018-02-03T07:19:49.307Z,1000.44
2018-02-03T07:20:14.847Z,1000.43
2018-02-03T07:20:40.378Z,1000.42
2018-02-03T07:21:05.865Z,1000.46
2018-02-03T07:21:31.307Z,1000.46
2018-02-03T07:21:56.800Z,1000.45
2018-02-03T07:22:22.244Z,1000.42
2018-02-03T07:22:47.708Z,1000.43
2018-02-03T07:23:13.183Z,1000.44
2018-02-03T07:23:38.664Z,1000.41
2018-02-03T07:24:04.126Z,1000.39
2018-02-03T07:24:29.586Z,1000.44
2018-02-03T07:25:48.526Z,1000.45
2018-02-03T07:26:14.016Z,1000.47
2018-02-03T07:26:39.502Z,1000.49
2018-02-03T07:27:05.171Z,1000.43
2018-02-03T07:27:30.612Z,1000.49
2018-02-03T07:27:56.073Z,1000.46
2018-02-03T07:28:54.607Z,1000.51
2018-02-03T07:29:20.327Z,1000.53
2018-02-03T07:29:45.784Z,1000.47
2018-02-03T07:30:11.243Z,1000.48
2018-02-03T07:31:14.888Z,1000.49
2018-02-03T07:32:23.588Z,1000.49
2018-02-03T07:32:49.043Z,1000.49
2018-02-03T07:33:14.536Z,1000.49
2018-02-03T07:33:40.047Z,1000.49
2018-02-03T07:34:05.597Z,1000.49
2018-02-03T07:34:31.096Z,1000.52
2018-02-03T07:34:56.562Z,1000.5
2018-02-03T07:35:22.053Z,1000.52
2018-02-03T07:35:47.588Z,1000.52
2018-02-03T07:36:13.064Z,1000.49
2018-02-03T07:36:38.576Z,1000.51
2018-02-03T07:37:04.029Z,1000.53
2018-02-03T07:37:29.493Z,1000.51
2018-02-03T07:37:55.030Z,1000.49
2018-02-03T07:38:20.498Z,1000.48
2018-02-03T07:38:45.959Z,1000.48
2018-02-03T07:39:11.439Z,1000.51
2018-02-03T07:39:36.936Z,1000.49
2018-02-03T07:40:02.418Z,1000.51
2018-02-03T07:40:27.855Z,1000.51
2018-02-03T07:40:53.403Z,1000.49
2018-02-03T07:41:18.927Z,1000.49
2018-02-03T07:41:44.420Z,1000.52
2018-02-03T07:42:09.953Z,1000.46
2018-02-03T07:42:35.469Z,1000.49
2018-02-03T07:43:00.925Z,1000.49
2018-02-03T07:43:26.427Z,1000.46
2018-02-03T07:43:51.919Z,1000.47
2018-02-03T07:44:17.433Z,1000.46
2018-02-03T07:45:36.381Z,1000.44
2018-02-03T07:46:01.881Z,1000.47
2018-02-03T07:46:27.364Z,1000.45
2018-02-03T07:46:52.806Z,1000.42
2018-02-03T07:47:18.341Z,1000.46
2018-02-03T07:48:32.861Z,1000.45
2018-02-03T07:48:58.371Z,1000.42
2018-02-03T07:49:23.849Z,1000.5
2018-02-03T07:49:49.335Z,1000.42
2018-02-03T07:50:14.793Z,1000.44
2018-02-03T07:50:40.260Z,1000.42
2018-02-03T07:51:05.760Z,1000.45
2018-02-03T07:51:31.212Z,1000.49
2018-02-03T07:51:56.695Z,1000.45
2018-02-03T07:52:22.191Z,1000.45
2018-02-03T07:52:47.630Z,1000.41
2018-02-03T07:53:13.240Z,1000.43
2018-02-03T07:53:38.645Z,1000.43
2018-02-03T07:54:04.135Z,1000.4
2018-02-03T07:55:03.744Z,1000.42
2018-02-03T07:55:29.250Z,1000.39
2018-02-03T07:55:54.724Z,1000.38
2018-02-03T07:56:20.277Z,1000.37
2018-02-03T07:56:45.734Z,1000.39
2018-02-03T07:57:11.221Z,1000.4
2018-02-03T07:57:36.806Z,1000.38
2018-02-03T07:58:02.256Z,1000.32
2018-02-03T07:58:27.752Z,1000.4
2018-02-03T07:58:53.257Z,1000.39
2018-02-03T07:59:18.701Z,1000.37
2018-02-03T07:59:44.257Z,1000.39
2018-02-03T08:00:09.831Z,1000.36
2018-02-03T08:00:35.279Z,1000.38
2018-02-03T08:01:00.804Z,1000.33
2018-02-03T08:01:26.325Z,1000.36
2018-02-03T08:01:51.809Z,1000.36
2018-02-03T08:02:17.296Z,1000.36
2018-02-03T08:02:42.779Z,1000.31
2018-02-03T08:03:08.249Z,1000.31
2018-02-03T08:03:33.735Z,1000.34
2018-02-03T08:03:59.187Z,1000.36
2018-02-03T08:04:57.733Z,1000.32
2018-02-03T08:05:23.231Z,1000.36
2018-02-03T08:05:48.669Z,1000.33
2018-02-03T08:06:14.141Z,1000.36
2018-02-03T08:06:39.632Z,1000.34
2018-02-03T08:07:05.089Z,1000.33
2018-02-03T08:07:30.625Z,1000.37
2018-02-03T08:07:56.071Z,1000.35
2018-02-03T08:08:21.521Z,1000.38
2018-02-03T08:08:46.983Z,1000.33
2018-02-03T08:09:12.464Z,1000.41
2018-02-03T08:09:37.916Z,1000.38
2018-02-03T08:10:03.422Z,1000.41
2018-02-03T08:10:28.994Z,1000.34
2018-02-03T08:10:54.430Z,1000.33
2018-02-03T08:11:19.875Z,1000.36
2018-02-03T08:11:45.411Z,1000.37
2018-02-03T08:12:10.891Z,1000.33
2018-02-03T08:12:36.361Z,1000.36
2018-02-03T08:13:01.856Z,1000.34
2018-02-03T08:13:27.356Z,1000.33
2018-02-03T08:13:52.828Z,1000.29
2018-02-03T08:14:18.337Z,1000.33
2018-02-03T08:14:43.845Z,1000.28
2018-02-03T08:15:09.300Z,1000.31
2018-02-03T08:15:34.781Z,1000.34
2018-02-03T08:16:00.300Z,1000.34
2018-02-03T08:16:25.799Z,1000.31
2018-02-03T08:16:51.276Z,1000.34
2018-02-03T08:17:16.722Z,1000.32
2018-02-03T08:17:42.295Z,1000.32
2018-02-03T08:18:07.776Z,1000.32
2018-02-03T08:18:33.274Z,1000.33
2018-02-03T08:18:58.820Z,1000.33
2018-02-03T08:19:24.274Z,1000.32
2018-02-03T08:19:49.746Z,1000.29
2018-02-03T08:20:15.203Z,1000.32
2018-02-03T08:20:40.677Z,1000.3
2018-02-03T08:21:06.155Z,1000.31
2018-02-03T08:21:31.631Z,1000.32
2018-02-03T08:21:57.086Z,1000.32
2018-02-03T08:22:22.561Z,1000.31
2018-02-03T08:22:48.013Z,1000.31
2018-02-03T08:23:13.488Z,1000.33
2018-02-03T08:23:39.017Z,1000.33
2018-02-03T08:24:04.459Z,1000.31
2018-02-03T08:25:02.967Z,1000.36
2018-02-03T08:25:28.416Z,1000.34
2018-02-03T08:25:53.932Z,1000.3
2018-02-03T08:26:19.369Z,1000.32
2018-02-03T08:26:44.907Z,1000.32
2018-02-03T08:27:10.343Z,1000.31
2018-02-03T08:27:35.794Z,1000.34
2018-02-03T08:28:01.318Z,1000.29
2018-02-03T08:28:26.794Z,1000.32
2018-02-03T08:29:25.300Z,1000.31
2018-02-03T08:29:50.768Z,1000.33
2018-02-03T08:30:16.247Z,1000.31
2018-02-03T08:30:41.730Z,1000.28
2018-02-03T08:31:07.293Z,1000.31
2018-02-03T08:31:32.765Z,1000.32
2018-02-03T08:32:36.435Z,1000.3
2018-02-03T08:33:02.280Z,1000.31
2018-02-03T08:34:21.185Z,1000.3
2018-02-03T08:34:46.751Z,1000.33
2018-02-03T08:35:12.282Z,1000.27
2018-02-03T08:35:37.758Z,1000.31
2018-02-03T08:36:03.301Z,1000.32
2018-02-03T08:36:28.775Z,1000.34
2018-02-03T08:36:54.313Z,1000.25
2018-02-03T08:37:57.915Z,1000.28
2018-02-03T08:38:23.400Z,1000.3
2018-02-03T08:38:48.883Z,1000.27
2018-02-03T08:39:14.352Z,1000.28
2018-02-03T08:39:39.868Z,1000.27
2018-02-03T08:40:05.329Z,1000.24
2018-02-03T08:40:30.790Z,1000.25
2018-02-03T08:40:56.271Z,1000.24
2018-02-03T08:41:21.770Z,1000.21
2018-02-03T08:41:47.280Z,1000.23
2018-02-03T08:42:12.690Z,1000.26
2018-02-03T08:42:38.131Z,1000.22
2018-02-03T08:43:03.613Z,1000.24
2018-02-03T08:43:29.094Z,1000.23
2018-02-03T08:43:54.562Z,1000.23
2018-02-03T08:44:20.040Z,1000.22
2018-02-03T08:44:45.542Z,1000.24
2018-02-03T08:45:11.023Z,1000.22
2018-02-03T08:45:36.475Z,1000.22
2018-02-03T08:46:01.947Z,1000.25
2018-02-03T08:46:27.420Z,1000.24
2018-02-03T08:46:52.916Z,1000.27
2018-02-03T08:47:18.365Z,1000.22
2018-02-03T08:47:43.827Z,1000.23
2018-02-03T08:48:09.321Z,1000.21
2018-02-03T08:48:34.776Z,1000.27
2018-02-03T08:49:00.324Z,1000.26
2018-02-03T08:49:25.872Z,1000.28
2018-02-03T08:49:51.372Z,1000.27
2018-02-03T08:50:16.821Z,1000.27
2018-02-03T08:50:42.281Z,1000.28
2018-02-03T08:51:07.744Z,1000.28
2018-02-03T08:51:33.183Z,1000.24
2018-02-03T08:51:58.669Z,1000.26
2018-02-03T08:52:24.171Z,1000.23
2018-02-03T08:52:49.648Z,1000.26
2018-02-03T08:53:15.132Z,1000.23
2018-02-03T08:53:40.787Z,1000.24
2018-02-03T08:54:06.321Z,1000.29
2018-02-03T08:54:31.836Z,1000.25
2018-02-03T08:54:57.335Z,1000.23
2018-02-03T08:55:22.823Z,1000.27
2018-02-03T08:55:48.319Z,1000.21
2018-02-03T08:56:13.842Z,1000.24
2018-02-03T08:56:39.329Z,1000.26
2018-02-03T08:57:04.842Z,1000.27
2018-02-03T08:57:30.322Z,1000.27
2018-02-03T08:57:55.810Z,1000.27
2018-02-03T08:58:21.325Z,1000.32
2018-02-03T08:58:46.802Z,1000.32
2018-02-03T08:59:12.310Z,1000.24
2018-02-03T08:59:37.772Z,1000.27
2018-02-03T09:00:03.278Z,1000.3
2018-02-03T09:00:28.903Z,1000.28
2018-02-03T09:00:54.396Z,1000.27
2018-02-03T09:01:19.937Z,1000.24
2018-02-03T09:01:45.460Z,1000.23
2018-02-03T09:02:10.961Z,1000.2
2018-02-03T09:02:36.413Z,1000.25
2018-02-03T09:03:01.909Z,1000.24
2018-02-03T09:03:27.386Z,1000.22
2018-02-03T09:03:52.852Z,1000.17
2018-02-03T09:04:51.376Z,1000.19
2018-02-03T09:06:06.134Z,1000.18
2018-02-03T09:06:31.706Z,1000.17
2018-02-03T09:06:57.206Z,1000.21
2018-02-03T09:07:22.713Z,1000.2
2018-02-03T09:07:48.172Z,1000.19
2018-02-03T09:08:13.841Z,1000.22
2018-02-03T09:08:39.441Z,1000.17
2018-02-03T09:09:04.964Z,1000.18
2018-02-03T09:09:30.781Z,1000.18
2018-02-03T09:09:56.317Z,1000.2
2018-02-03T09:10:21.756Z,1000.2
2018-02-03T09:10:47.313Z,1000.24
2018-02-03T09:11:12.893Z,1000.2
2018-02-03T09:11:38.458Z,1000.22
2018-02-03T09:12:04.255Z,1000.2
2018-02-03T09:12:30.017Z,1000.2
2018-02-03T09:12:55.558Z,1000.21
2018-02-03T09:13:21.189Z,1000.22
2018-02-03T09:13:47.253Z,1000.24
2018-02-03T09:14:13.032Z,1000.2
2018-02-03T09:14:38.465Z,1000.22
2018-02-03T09:15:04.165Z,1000.24
2018-02-03T09:15:30.348Z,1000.23
2018-02-03T09:15:56.006Z,1000.24
2018-02-03T09:16:21.495Z,1000.28
2018-02-03T09:16:47.109Z,1000.25
2018-02-03T09:17:13.118Z,1000.29
2018-02-03T09:17:39.061Z,1000.28
2018-02-03T09:18:04.511Z,1000.27
2018-02-03T09:18:30.126Z,1000.22
2018-02-03T09:18:55.448Z,1000.25
2018-02-03T09:19:21.203Z,1000.29
2018-02-03T09:19:46.767Z,1000.25
2018-02-03T09:20:12.593Z,1000.28
2018-02-03T09:20:38.223Z,1000.25
2018-02-03T09:21:04.297Z,1000.23
2018-02-03T09:21:29.827Z,1000.24
2018-02-03T09:21:55.476Z,1000.23
2018-02-03T09:22:21.100Z,1000.27
2018-02-03T09:22:46.558Z,1000.26
2018-02-03T09:23:12.372Z,1000.24
2018-02-03T09:23:37.686Z,1000.2
2018-02-03T09:24:03.419Z,1000.24
2018-02-03T09:24:28.978Z,1000.25
2018-02-03T09:24:54.389Z,1000.23
2018-02-03T09:25:19.882Z,1000.21
2018-02-03T09:25:45.613Z,1000.2
2018-02-03T09:26:11.022Z,1000.27
2018-02-03T09:26:36.590Z,1000.24
2018-02-03T09:27:02.108Z,1000.27
2018-02-03T09:27:27.632Z,1000.25
2018-02-03T09:27:53.176Z,1000.24
2018-02-03T09:28:18.704Z,1000.28
2018-02-03T09:28:44.199Z,1000.25
2018-02-03T09:29:09.933Z,1000.29
2018-02-03T09:29:35.267Z,1000.23
2018-02-03T09:30:00.749Z,1000.21
2018-02-03T09:30:26.260Z,1000.24
2018-02-03T09:30:52.013Z,1000.21
2018-02-03T09:31:17.571Z,1000.23
2018-02-03T09:31:43.040Z,1000.19
2018-02-03T09:32:08.552Z,1000.27
2018-02-03T09:32:34.046Z,1000.22
2018-02-03T09:32:59.558Z,1000.24
2018-02-03T09:33:25.101Z,1000.19
2018-02-03T09:33:50.549Z,1000.21
2018-02-03T09:34:16.043Z,1000.24
2018-02-03T09:34:41.505Z,1000.22
2018-02-03T09:35:06.943Z,1000.25
2018-02-03T09:35:32.565Z,1000.26
2018-02-03T09:35:57.978Z,1000.25
2018-02-03T09:36:23.566Z,1000.21
2018-02-03T09:36:49.062Z,1000.21
2018-02-03T09:37:14.588Z,1000.18
2018-02-03T09:37:40.122Z,1000.22
2018-02-03T09:38:05.699Z,1000.19
2018-02-03T09:38:31.304Z,1000.14
2018-02-03T09:38:56.809Z,1000.19
2018-02-03T09:39:22.290Z,1000.2
2018-02-03T09:39:47.748Z,1000.17
2018-02-03T09:40:13.228Z,1000.2
2018-02-03T09:40:38.703Z,1000.2
2018-02-03T09:41:04.107Z,1000.17
2018-02-03T09:41:29.635Z,1000.19
2018-02-03T09:41:55.059Z,1000.16
2018-02-03T09:42:21.194Z,1000.15
2018-02-03T09:42:46.093Z,1000.18
2018-02-03T09:43:11.665Z,1000.17
2018-02-03T09:43:37.131Z,1000.14
2018-02-03T09:44:02.633Z,1000.15
2018-02-03T09:44:28.127Z,1000.15
2018-02-03T09:44:53.628Z,1000.12
2018-02-03T09:45:19.058Z,1000.13
2018-02-03T09:45:44.575Z,1000.15
2018-02-03T09:46:10.043Z,1000.12
2018-02-03T09:46:35.585Z,1000.14
2018-02-03T09:47:01.055Z,1000.16
2018-02-03T09:47:26.564Z,1000.17
2018-02-03T09:47:52.126Z,1000.14
2018-02-03T09:48:17.773Z,1000.14
2018-02-03T09:48:43.213Z,1000.16
2018-02-03T09:49:08.674Z,1000.13
2018-02-03T09:49:34.197Z,1000.14
2018-02-03T09:49:59.641Z,1000.09
2018-02-03T09:50:25.165Z,1000.13
2018-02-03T09:50:50.644Z,1000.11
2018-02-03T09:51:16.256Z,1000.12
2018-02-03T09:51:41.881Z,1000.07
2018-02-03T09:52:07.446Z,1000.12
2018-02-03T09:52:33.084Z,1000.08
2018-02-03T09:52:58.637Z,1000.09
2018-02-03T09:53:24.116Z,1000.11
2018-02-03T09:53:49.705Z,1000.07
2018-02-03T09:54:15.185Z,1000.05
2018-02-03T09:54:40.752Z,1000.07
2018-02-03T09:55:06.241Z,1000.11
2018-02-03T09:55:31.707Z,1000.06
2018-02-03T09:55:57.181Z,1000.08
2018-02-03T09:56:22.606Z,1000.07
2018-02-03T09:56:48.132Z,1000.06
2018-02-03T09:57:13.635Z,1000.1
2018-02-03T09:57:39.277Z,1000.08
2018-02-03T09:58:04.999Z,1000.1
2018-02-03T09:58:30.534Z,1000.07
2018-02-03T09:58:56.061Z,1000.08
2018-02-03T09:59:21.543Z,1000.07
2018-02-03T09:59:47.046Z,1000.06
2018-02-03T10:00:12.520Z,1000.08
2018-02-03T10:00:38.040Z,1000.06
2018-02-03T10:01:03.504Z,1000.11
2018-02-03T10:01:28.983Z,1000.12
2018-02-03T10:01:54.485Z,1000.07
2018-02-03T10:02:20.025Z,1000.11
2018-02-03T10:02:45.559Z,1000.09
2018-02-03T10:03:11.030Z,1000.1
2018-02-03T10:03:36.558Z,1000.08
2018-02-03T10:04:02.117Z,1000.14
2018-02-03T10:04:27.641Z,1000.15
2018-02-03T10:04:53.117Z,1000.16
2018-02-03T10:05:18.588Z,1000.18
2018-02-03T10:05:44.149Z,1000.16
2018-02-03T10:06:09.631Z,1000.17
2018-02-03T10:06:35.166Z,1000.14
2018-02-03T10:07:00.626Z,1000.14
2018-02-03T10:07:26.167Z,1000.16
2018-02-03T10:07:51.625Z,1000.16
2018-02-03T10:08:17.110Z,1000.17
2018-02-03T10:08:42.498Z,1000.17
2018-02-03T10:09:08.028Z,1000.12
2018-02-03T10:09:33.550Z,1000.18
2018-02-03T10:09:59.085Z,1000.15
2018-02-03T10:10:24.555Z,1000.13
2018-02-03T10:10:50.065Z,1000.15
2018-02-03T10:11:15.536Z,1000.11
2018-02-03T10:11:41.066Z,1000.1
2018-02-03T10:12:06.490Z,1000.14
2018-02-03T10:12:32.057Z,1000.13
2018-02-03T10:12:57.598Z,1000.15
2018-02-03T10:13:22.970Z,1000.16
2018-02-03T10:13:48.467Z,1000.17
2018-02-03T10:14:14.005Z,1000.14
2018-02-03T10:14:39.525Z,1000.13
2018-02-03T10:15:04.986Z,1000.14
2018-02-03T10:15:30.536Z,1000.17
2018-02-03T10:15:56.087Z,1000.16
2018-02-03T10:16:21.597Z,1000.15
2018-02-03T10:16:47.116Z,1000.16
2018-02-03T10:17:12.589Z,1000.14
2018-02-03T10:17:38.029Z,1000.17
2018-02-03T10:18:03.578Z,1000.14
2018-02-03T10:18:29.109Z,1000.11
2018-02-03T10:18:54.600Z,1000.1
2018-02-03T10:19:20.164Z,1000.1
2018-02-03T10:19:45.668Z,1000.12
2018-02-03T10:20:11.134Z,1000.14
2018-02-03T10:20:36.715Z,1000.14
2018-02-03T10:21:02.266Z,1000.1
2018-02-03T10:21:27.770Z,1000.12
2018-02-03T10:21:53.264Z,1000.09
2018-02-03T10:22:18.834Z,1000.1
2018-02-03T10:22:44.194Z,1000.12
2018-02-03T10:23:09.753Z,1000.14
2018-02-03T10:23:35.287Z,1000.13
2018-02-03T10:24:00.696Z,1000.12
2018-02-03T10:24:26.304Z,1000.12
2018-02-03T10:24:51.803Z,1000.09
2018-02-03T10:25:17.325Z,1000.12
2018-02-03T10:25:42.848Z,1000.13
2018-02-03T10:26:08.355Z,1000.09
2018-02-03T10:26:33.846Z,1000.11
2018-02-03T10:26:59.350Z,1000.11
2018-02-03T10:27:24.855Z,1000.09
2018-02-03T10:27:50.298Z,1000.06
2018-02-03T10:28:15.951Z,1000.03
2018-02-03T10:28:41.490Z,1000.09
2018-02-03T10:29:06.980Z,1000.09
2018-02-03T10:29:32.485Z,1000.02
2018-02-03T10:29:57.954Z,1000.03
2018-02-03T10:30:23.438Z,1000.03